createdAt,value
2024-02-13T00:00:11.985Z,4.50
2024-02-13T00:02:41.701Z,4.50
2024-02-13T00:05:10.388Z,4.50
2024-02-13T00:07:40.002Z,4.46
2024-02-13T00:10:12.949Z,4.53
2024-02-13T00:12:40.489Z,4.51
2024-02-13T00:15:10.594Z,4.49
2024-02-13T00:17:37.553Z,4.46
2024-02-13T00:20:09.643Z,4.37
2024-02-13T00:22:39.577Z,4.41
2024-02-13T00:25:07.836Z,4.46
2024-02-13T00:27:36.439Z,4.43
2024-02-13T00:30:04.101Z,4.48
2024-02-13T00:32:31.656Z,4.44
2024-02-13T00:34:59.527Z,4.46
2024-02-13T00:37:26.310Z,4.39
2024-02-13T00:39:54.379Z,4.29
2024-02-13T00:42:21.265Z,4.24
2024-02-13T00:44:49.064Z,4.29
2024-02-13T00:47:16.050Z,4.28
2024-02-13T00:49:43.009Z,4.30
2024-02-13T00:52:09.719Z,4.26
2024-02-13T00:54:37.101Z,4.26
2024-02-13T00:57:04.365Z,4.34
2024-02-13T00:59:32.158Z,4.28
2024-02-13T01:02:00.122Z,4.26
2024-02-13T01:04:28.368Z,4.27
2024-02-13T01:06:55.446Z,4.26
2024-02-13T01:09:22.300Z,4.25
2024-02-13T01:11:49.681Z,4.29
2024-02-13T01:14:16.738Z,4.25
2024-02-13T01:16:43.535Z,4.32
2024-02-13T01:19:10.308Z,4.36
2024-02-13T01:21:37.298Z,4.38
2024-02-13T01:24:04.427Z,4.35
2024-02-13T01:26:31.201Z,4.26
2024-02-13T01:28:58.420Z,4.24
2024-02-13T01:31:25.237Z,4.24
2024-02-13T01:33:52.134Z,4.24
2024-02-13T01:36:22.078Z,4.29
2024-02-13T01:38:50.042Z,4.32
2024-02-13T01:41:17.016Z,4.40
2024-02-13T01:43:43.820Z,4.39
2024-02-13T01:46:12.619Z,4.34
2024-02-13T01:48:40.662Z,4.29
2024-02-13T01:51:08.658Z,4.28
2024-02-13T01:53:37.575Z,4.26
2024-02-13T01:56:06.355Z,4.24
2024-02-13T01:58:33.603Z,4.18
2024-02-13T02:01:01.675Z,4.25
2024-02-13T02:03:32.312Z,4.28
2024-02-13T02:06:01.593Z,4.25
2024-02-13T02:08:29.146Z,4.25
2024-02-13T02:11:00.130Z,4.25
2024-02-13T02:13:28.602Z,4.26
2024-02-13T02:15:56.274Z,4.19
2024-02-13T02:18:23.311Z,4.20
2024-02-13T02:20:50.368Z,4.17
2024-02-13T02:23:20.367Z,4.14
2024-02-13T02:25:48.103Z,4.14
2024-02-13T02:28:16.546Z,4.19
2024-02-13T02:30:43.936Z,4.20
2024-02-13T02:33:10.928Z,4.19
2024-02-13T02:35:37.903Z,4.16
2024-02-13T02:38:04.880Z,4.18
2024-02-13T02:40:31.626Z,4.12
2024-02-13T02:43:00.941Z,4.06
2024-02-13T02:45:28.946Z,4.09
2024-02-13T02:47:56.387Z,4.09
2024-02-13T02:50:23.820Z,4.03
2024-02-13T02:52:51.623Z,4.05
2024-02-13T02:55:23.134Z,4.02
2024-02-13T02:57:51.864Z,3.97
2024-02-13T03:00:20.118Z,3.93
2024-02-13T03:02:47.497Z,3.87
2024-02-13T03:05:14.757Z,3.92
2024-02-13T03:07:41.623Z,3.87
2024-02-13T03:10:11.382Z,3.83
2024-02-13T03:12:39.327Z,3.78
2024-02-13T03:15:07.107Z,3.77
2024-02-13T03:17:34.245Z,3.78
2024-02-13T03:20:02.254Z,3.77
2024-02-13T03:22:29.523Z,3.64
2024-02-13T03:24:56.379Z,3.68
2024-02-13T03:27:23.203Z,3.63
2024-02-13T03:29:50.041Z,3.68
2024-02-13T03:32:16.994Z,3.72
2024-02-13T03:34:43.898Z,3.66
2024-02-13T03:37:10.741Z,3.55
2024-02-13T03:39:37.587Z,3.49
2024-02-13T03:42:05.811Z,3.47
2024-02-13T03:44:33.410Z,3.51
2024-02-13T03:47:00.705Z,3.49
2024-02-13T03:49:28.397Z,3.44
2024-02-13T03:51:55.321Z,3.46
2024-02-13T03:54:22.178Z,3.49
2024-02-13T03:56:49.284Z,3.49
2024-02-13T03:59:17.320Z,3.55
2024-02-13T04:01:45.055Z,3.57
2024-02-13T04:04:11.922Z,3.67
2024-02-13T04:06:38.805Z,3.66
2024-02-13T04:09:08.477Z,3.60
2024-02-13T04:11:37.029Z,3.63
2024-02-13T04:14:04.274Z,3.60
2024-02-13T04:16:32.078Z,3.66
2024-02-13T04:19:00.398Z,3.65
2024-02-13T04:21:27.478Z,3.64
2024-02-13T04:23:54.458Z,3.64
2024-02-13T04:26:30.564Z,3.63
2024-02-13T04:29:03.508Z,3.63
2024-02-13T04:31:30.486Z,3.64
2024-02-13T04:33:57.421Z,3.72
2024-02-13T04:36:25.145Z,3.77
2024-02-13T04:38:52.010Z,3.77
2024-02-13T04:41:21.808Z,3.80
2024-02-13T04:43:48.905Z,3.76
2024-02-13T04:46:15.927Z,3.70
2024-02-13T04:48:42.996Z,3.68
2024-02-13T04:51:10.537Z,3.65
2024-02-13T04:53:38.618Z,3.62
2024-02-13T04:56:06.176Z,3.59
2024-02-13T04:58:34.320Z,3.62
2024-02-13T05:01:06.624Z,3.54
2024-02-13T05:03:49.567Z,3.53
2024-02-13T05:06:35.370Z,3.53
2024-02-13T05:09:02.186Z,3.38
2024-02-13T05:11:29.059Z,3.40
2024-02-13T05:13:59.776Z,3.43
2024-02-13T05:16:31.031Z,3.48
2024-02-13T05:18:57.997Z,3.45
2024-02-13T05:21:25.370Z,3.47
2024-02-13T05:23:52.459Z,3.55
2024-02-13T05:26:19.529Z,3.56
2024-02-13T05:28:46.774Z,3.53
2024-02-13T05:31:13.638Z,3.58
2024-02-13T05:33:40.867Z,3.57
2024-02-13T05:36:11.517Z,3.55
2024-02-13T05:38:44.423Z,3.53
2024-02-13T05:41:12.053Z,3.50
2024-02-13T05:43:41.109Z,3.43
2024-02-13T05:46:08.285Z,3.38
2024-02-13T05:48:37.357Z,3.37
2024-02-13T05:51:10.525Z,3.35
2024-02-13T05:53:37.766Z,3.38
2024-02-13T05:56:05.456Z,3.34
2024-02-13T05:58:32.735Z,3.36
2024-02-13T06:00:59.698Z,3.36
2024-02-13T06:03:26.610Z,3.38
2024-02-13T06:05:56.819Z,3.39
2024-02-13T06:08:24.682Z,3.44
2024-02-13T06:10:51.867Z,3.42
2024-02-13T06:13:18.949Z,3.38
2024-02-13T06:15:45.884Z,3.33
2024-02-13T06:18:13.448Z,3.29
2024-02-13T06:20:40.721Z,3.23
2024-02-13T06:23:07.891Z,3.24
2024-02-13T06:25:34.993Z,3.21
2024-02-13T06:28:01.931Z,3.21
2024-02-13T06:30:29.467Z,3.19
2024-02-13T06:32:56.871Z,3.23
2024-02-13T06:35:23.832Z,3.17
2024-02-13T06:37:51.430Z,3.20
2024-02-13T06:40:18.432Z,3.16
2024-02-13T06:42:45.332Z,3.16
2024-02-13T06:45:12.309Z,3.16
2024-02-13T06:47:39.701Z,3.10
2024-02-13T06:50:13.425Z,3.09
2024-02-13T06:52:41.925Z,3.14
2024-02-13T06:55:09.491Z,3.17
2024-02-13T06:57:37.291Z,3.13
2024-02-13T07:00:25.826Z,3.16
2024-02-13T07:02:54.816Z,3.20
2024-02-13T07:05:21.758Z,3.37
2024-02-13T07:07:49.644Z,3.76
2024-02-13T07:10:17.720Z,4.17
2024-02-13T07:12:45.512Z,4.55
2024-02-13T07:15:12.879Z,4.71
2024-02-13T07:20:12.501Z,4.86
2024-02-13T07:22:40.607Z,5.04
2024-02-13T07:25:10.220Z,5.27
2024-02-13T07:27:38.712Z,5.65
2024-02-13T07:30:09.896Z,5.88
2024-02-13T07:32:36.786Z,6.04
2024-02-13T07:35:04.753Z,6.19
2024-02-13T07:37:32.725Z,6.51
2024-02-13T07:40:00.837Z,6.76
2024-02-13T07:42:29.378Z,7.00
2024-02-13T07:44:56.876Z,7.08
2024-02-13T07:47:24.227Z,7.26
2024-02-13T07:49:51.517Z,7.44
2024-02-13T07:52:19.215Z,7.59
2024-02-13T07:54:47.172Z,7.76
2024-02-13T07:57:18.343Z,7.97
2024-02-13T07:59:46.227Z,8.12
2024-02-13T08:02:14.578Z,8.18
2024-02-13T08:04:42.176Z,8.35
2024-02-13T08:07:10.215Z,8.43
2024-02-13T08:09:37.846Z,8.61
2024-02-13T08:12:08.143Z,8.75
2024-02-13T08:14:36.471Z,8.95
2024-02-13T08:17:08.083Z,9.08
2024-02-13T08:19:42.200Z,9.05
2024-02-13T08:22:09.820Z,9.18
2024-02-13T08:24:37.570Z,9.14
2024-02-13T08:27:06.925Z,9.29
2024-02-13T08:29:34.142Z,9.48
2024-02-13T08:32:01.224Z,9.54
2024-02-13T08:34:28.358Z,9.63
2024-02-13T08:36:56.750Z,9.61
2024-02-13T08:39:23.617Z,9.90
2024-02-13T08:41:50.630Z,10.02
2024-02-13T08:44:18.193Z,10.11
2024-02-13T08:46:45.036Z,10.30
2024-02-13T08:49:13.531Z,10.44
2024-02-13T08:51:40.911Z,10.26
2024-02-13T08:54:12.865Z,10.30
2024-02-13T08:56:41.202Z,10.40
2024-02-13T08:59:09.604Z,10.35
2024-02-13T09:01:36.591Z,10.61
2024-02-13T09:04:03.798Z,10.74
2024-02-13T09:06:31.898Z,10.84
2024-02-13T09:08:59.338Z,10.71
2024-02-13T09:11:28.388Z,10.86
2024-02-13T09:13:55.262Z,10.88
2024-02-13T09:16:22.589Z,11.07
2024-02-13T09:18:49.669Z,11.05
2024-02-13T09:21:18.147Z,11.18
2024-02-13T09:23:45.131Z,11.25
2024-02-13T09:26:12.953Z,11.32
2024-02-13T09:28:40.954Z,10.76
2024-02-13T09:31:09.473Z,10.57
2024-02-13T09:33:36.516Z,10.69
2024-02-13T09:36:06.763Z,11.02
2024-02-13T09:38:33.749Z,11.14
2024-02-13T09:41:00.894Z,11.14
2024-02-13T09:43:27.714Z,11.32
2024-02-13T09:45:56.461Z,11.66
2024-02-13T09:48:26.680Z,11.74
2024-02-13T09:50:59.657Z,11.84
2024-02-13T09:53:28.412Z,11.94
2024-02-13T09:55:59.238Z,11.51
2024-02-13T09:58:30.908Z,10.96
2024-02-13T10:01:01.074Z,10.39
2024-02-13T10:03:29.386Z,10.01
2024-02-13T10:05:57.150Z,9.61
2024-02-13T10:08:29.400Z,9.23
2024-02-13T10:11:04.255Z,9.10
2024-02-13T10:13:46.395Z,8.98
2024-02-13T10:16:27.404Z,9.39
2024-02-13T10:18:56.287Z,10.40
2024-02-13T10:21:27.627Z,11.07
2024-02-13T10:24:15.497Z,11.29
2024-02-13T10:26:43.653Z,11.50
2024-02-13T10:29:10.808Z,11.65
2024-02-13T10:31:39.860Z,11.25
2024-02-13T10:34:11.127Z,10.03
2024-02-13T10:36:42.735Z,9.38
2024-02-13T10:39:13.585Z,8.85
2024-02-13T10:41:43.505Z,8.48
2024-02-13T10:44:22.639Z,8.12
2024-02-13T10:46:50.814Z,7.85
2024-02-13T10:49:49.921Z,7.72
2024-02-13T10:52:17.594Z,7.98
2024-02-13T10:54:48.422Z,7.89
2024-02-13T10:57:16.681Z,7.75
2024-02-13T10:59:47.322Z,7.67
2024-02-13T11:02:15.830Z,8.02
2024-02-13T11:04:45.044Z,8.57
2024-02-13T11:07:12.842Z,9.06
2024-02-13T11:09:40.079Z,9.49
2024-02-13T11:12:08.410Z,9.96
2024-02-13T11:14:35.422Z,10.35
2024-02-13T11:17:13.143Z,10.90
2024-02-13T11:19:45.557Z,11.04
2024-02-13T11:22:16.882Z,10.95
2024-02-13T11:24:52.795Z,10.45
2024-02-13T11:27:30.002Z,10.98
2024-02-13T11:30:00.831Z,11.71
2024-02-13T11:32:33.440Z,11.66
2024-02-13T11:35:01.075Z,11.83
2024-02-13T11:37:31.740Z,11.76
2024-02-13T11:39:59.297Z,11.26
2024-02-13T11:42:35.009Z,10.51
2024-02-13T11:45:07.301Z,10.16
2024-02-13T11:47:34.797Z,9.85
2024-02-13T11:50:03.136Z,9.76
2024-02-13T11:52:30.074Z,9.84
2024-02-13T11:54:57.334Z,9.71
2024-02-13T11:57:26.744Z,9.88
2024-02-13T12:00:02.860Z,9.78
2024-02-13T12:02:31.265Z,9.47
2024-02-13T12:04:58.139Z,9.13
2024-02-13T12:07:25.105Z,8.99
2024-02-13T12:09:54.224Z,8.85
2024-02-13T12:12:22.137Z,8.90
2024-02-13T12:14:54.118Z,9.61
2024-02-13T12:17:22.874Z,9.75
2024-02-13T12:19:50.478Z,9.48
2024-02-13T12:22:18.810Z,9.21
2024-02-13T12:24:47.981Z,8.99
2024-02-13T12:27:16.548Z,9.38
2024-02-13T12:29:46.855Z,9.87
2024-02-13T12:32:18.769Z,10.45
2024-02-13T12:34:51.048Z,11.10
2024-02-13T12:37:19.629Z,11.53
2024-02-13T12:39:47.347Z,11.52
2024-02-13T12:42:14.904Z,11.45
2024-02-13T12:44:42.339Z,10.96
2024-02-13T12:47:11.627Z,10.45
2024-02-13T12:49:40.099Z,10.33
2024-02-13T12:52:07.658Z,10.28
2024-02-13T12:54:34.498Z,10.02
2024-02-13T12:57:02.196Z,9.96
2024-02-13T12:59:33.431Z,9.85
2024-02-13T13:02:00.604Z,9.57
2024-02-13T13:04:27.742Z,9.49
2024-02-13T13:06:56.103Z,9.84
2024-02-13T13:09:27.984Z,10.34
2024-02-13T13:11:56.674Z,10.22
2024-02-13T13:14:25.228Z,10.19
2024-02-13T13:16:53.141Z,10.86
2024-02-13T13:19:23.599Z,11.32
2024-02-13T13:21:52.356Z,11.43
2024-02-13T13:24:19.217Z,11.30
2024-02-13T13:26:46.788Z,11.30
2024-02-13T13:29:18.144Z,11.14
2024-02-13T13:31:45.813Z,10.80
2024-02-13T13:34:17.317Z,10.71
2024-02-13T13:36:45.954Z,11.13
2024-02-13T13:39:15.120Z,11.47
2024-02-13T13:41:42.901Z,11.44
2024-02-13T13:44:15.033Z,11.54
2024-02-13T13:46:42.696Z,11.88
2024-02-13T13:49:10.796Z,11.99
2024-02-13T13:51:40.640Z,12.00
2024-02-13T13:54:07.797Z,12.09
2024-02-13T13:56:34.892Z,12.08
2024-02-13T13:59:01.729Z,12.11
2024-02-13T14:01:28.697Z,12.07
2024-02-13T14:03:57.023Z,11.90
2024-02-13T14:06:24.295Z,11.81
2024-02-13T14:08:51.357Z,11.74
2024-02-13T14:11:22.306Z,11.71
2024-02-13T14:13:51.156Z,11.59
2024-02-13T14:16:19.546Z,11.58
2024-02-13T14:18:46.615Z,11.55
2024-02-13T14:21:14.004Z,11.53
2024-02-13T14:23:42.209Z,11.54
2024-02-13T14:26:09.149Z,11.09
2024-02-13T14:28:36.180Z,10.88
2024-02-13T14:31:02.990Z,10.55
2024-02-13T14:33:30.203Z,10.36
2024-02-13T14:35:57.341Z,10.48
2024-02-13T14:38:24.278Z,10.56
2024-02-13T14:40:51.063Z,10.60
2024-02-13T14:43:17.862Z,10.66
2024-02-13T14:45:45.825Z,10.62
2024-02-13T14:48:15.067Z,10.63
2024-02-13T14:50:42.743Z,10.58
2024-02-13T14:53:10.407Z,10.58
2024-02-13T14:55:40.181Z,10.50
2024-02-13T14:58:18.103Z,10.41
2024-02-13T15:00:54.667Z,10.17
2024-02-13T15:03:25.438Z,10.03
2024-02-13T15:05:53.998Z,10.02
2024-02-13T15:08:21.462Z,9.98
2024-02-13T15:10:50.193Z,9.93
2024-02-13T15:13:17.616Z,9.75
2024-02-13T15:15:52.246Z,9.41
2024-02-13T15:18:19.831Z,9.22
2024-02-13T15:20:48.745Z,9.17
2024-02-13T15:23:16.670Z,9.12
2024-02-13T15:25:43.797Z,8.93
2024-02-13T15:28:10.644Z,8.72
2024-02-13T15:30:38.948Z,8.56
2024-02-13T15:33:07.178Z,8.39
2024-02-13T15:35:43.120Z,8.31
2024-02-13T15:38:29.331Z,8.11
2024-02-13T15:41:14.966Z,7.98
2024-02-13T15:44:00.358Z,7.89
2024-02-13T15:46:45.829Z,7.87
2024-02-13T15:49:17.003Z,7.91
2024-02-13T15:51:50.731Z,7.90
2024-02-13T15:54:17.789Z,7.76
2024-02-13T15:56:50.173Z,7.67
2024-02-13T15:59:18.483Z,7.62
2024-02-13T16:01:47.169Z,7.64
2024-02-13T16:04:14.666Z,7.49
2024-02-13T16:06:41.716Z,7.46
2024-02-13T16:09:12.034Z,7.42
2024-02-13T16:11:39.142Z,7.32
2024-02-13T16:14:06.258Z,7.27
2024-02-13T16:16:33.170Z,7.19
2024-02-13T16:19:00.115Z,7.14
2024-02-13T16:21:27.091Z,7.06
2024-02-13T16:23:54.170Z,6.98
2024-02-13T16:26:21.456Z,6.96
2024-02-13T16:28:48.447Z,6.87
2024-02-13T16:31:15.357Z,6.84
2024-02-13T16:33:44.043Z,6.78
2024-02-13T16:36:11.345Z,6.68
2024-02-13T16:38:38.531Z,6.65
2024-02-13T16:41:05.441Z,6.54
2024-02-13T16:43:32.958Z,6.45
2024-02-13T16:45:59.735Z,6.37
2024-02-13T16:48:27.120Z,6.31
2024-02-13T16:50:54.086Z,6.24
2024-02-13T16:53:20.937Z,6.19
2024-02-13T16:55:50.129Z,6.15
2024-02-13T16:58:17.156Z,6.16
2024-02-13T17:00:44.136Z,6.09
2024-02-13T17:03:11.026Z,6.02
2024-02-13T17:05:39.856Z,5.95
2024-02-13T17:08:08.065Z,5.91
2024-02-13T17:10:35.154Z,5.83
2024-02-13T17:13:04.491Z,5.76
2024-02-13T17:15:31.587Z,5.66
2024-02-13T17:17:58.748Z,5.62
2024-02-13T17:20:26.110Z,5.62
2024-02-13T17:22:55.226Z,5.54
2024-02-13T17:25:22.129Z,5.56
2024-02-13T17:27:49.387Z,5.53
2024-02-13T17:30:16.662Z,5.56
2024-02-13T17:32:45.964Z,5.50
2024-02-13T17:35:13.922Z,5.50
2024-02-13T17:37:40.928Z,5.49
2024-02-13T17:40:12.690Z,5.48
2024-02-13T17:42:40.180Z,5.47
2024-02-13T17:45:08.410Z,5.43
2024-02-13T17:47:39.327Z,5.38
2024-02-13T17:50:08.494Z,5.37
2024-02-13T17:52:35.550Z,5.35
2024-02-13T17:55:07.612Z,5.37
2024-02-13T17:57:39.864Z,5.44
2024-02-13T18:00:09.118Z,5.44
2024-02-13T18:02:38.976Z,5.44
2024-02-13T18:05:06.358Z,5.40
2024-02-13T18:07:35.061Z,5.35
2024-02-13T18:10:01.918Z,5.34
2024-02-13T18:12:28.771Z,5.29
2024-02-13T18:14:55.643Z,5.23
2024-02-13T18:17:25.221Z,5.16
2024-02-13T18:19:52.184Z,5.10
2024-02-13T18:22:19.500Z,5.03
2024-02-13T18:24:46.431Z,4.98
2024-02-13T18:27:14.812Z,4.95
2024-02-13T18:29:42.287Z,4.90
2024-02-13T18:32:09.151Z,4.89
2024-02-13T18:34:36.099Z,4.82
2024-02-13T18:37:02.912Z,4.81
2024-02-13T18:39:29.747Z,4.80
2024-02-13T18:41:56.687Z,4.76
2024-02-13T18:44:24.234Z,4.76
2024-02-13T18:46:54.539Z,4.71
2024-02-13T18:49:22.536Z,4.70
2024-02-13T18:51:50.596Z,4.66
2024-02-13T18:54:18.146Z,4.65
2024-02-13T18:56:45.064Z,4.61
2024-02-13T18:59:12.496Z,4.57
2024-02-13T19:01:41.079Z,4.55
2024-02-13T19:04:10.414Z,4.44
2024-02-13T19:06:39.188Z,4.35
2024-02-13T19:09:06.859Z,4.33
2024-02-13T19:11:34.085Z,4.30
2024-02-13T19:14:01.070Z,4.25
2024-02-13T19:16:27.877Z,4.17
2024-02-13T19:18:54.789Z,4.14
2024-02-13T19:21:22.751Z,4.03
2024-02-13T19:23:49.725Z,3.94
2024-02-13T19:26:16.598Z,3.92
2024-02-13T19:28:43.512Z,3.85
2024-02-13T19:31:12.306Z,3.79
2024-02-13T19:33:39.416Z,3.79
2024-02-13T19:36:06.839Z,3.73
2024-02-13T19:38:34.965Z,3.68
2024-02-13T19:41:01.913Z,3.70
2024-02-13T19:43:28.757Z,3.69
2024-02-13T19:45:56.963Z,3.68
2024-02-13T19:48:23.925Z,3.68
2024-02-13T19:50:52.555Z,3.61
2024-02-13T19:53:19.836Z,3.60
2024-02-13T19:55:46.649Z,3.63
2024-02-13T19:58:16.293Z,3.61
2024-02-13T20:00:43.271Z,3.58
2024-02-13T20:03:10.150Z,3.55
2024-02-13T20:05:37.180Z,3.62
2024-02-13T20:08:04.313Z,3.63
2024-02-13T20:10:32.001Z,3.61
2024-02-13T20:12:58.926Z,3.61
2024-02-13T20:15:25.822Z,3.63
2024-02-13T20:17:52.885Z,3.57
2024-02-13T20:20:20.695Z,3.55
2024-02-13T20:22:49.650Z,3.47
2024-02-13T20:25:16.714Z,3.53
2024-02-13T20:27:45.219Z,3.42
2024-02-13T20:30:14.599Z,3.29
2024-02-13T20:32:46.340Z,3.31
2024-02-13T20:35:13.857Z,3.30
2024-02-13T20:37:41.844Z,3.36
2024-02-13T20:40:11.569Z,3.40
2024-02-13T20:42:40.833Z,3.34
2024-02-13T20:45:21.407Z,3.26
2024-02-13T20:47:51.108Z,3.15
2024-02-13T20:50:18.639Z,3.04
2024-02-13T20:52:45.634Z,3.05
2024-02-13T20:55:14.910Z,3.01
2024-02-13T20:57:43.422Z,3.03
2024-02-13T21:00:16.888Z,3.04
2024-02-13T21:02:44.290Z,3.00
2024-02-13T21:05:11.666Z,2.95
2024-02-13T21:07:38.749Z,2.94
2024-02-13T21:10:07.517Z,2.91
2024-02-13T21:12:34.433Z,2.85
2024-02-13T21:15:01.643Z,2.86
2024-02-13T21:17:29.174Z,2.83
2024-02-13T21:20:01.431Z,2.79
2024-02-13T21:22:47.173Z,2.85
2024-02-13T21:25:14.016Z,2.80
2024-02-13T21:27:40.864Z,2.86
2024-02-13T21:30:08.358Z,2.87
2024-02-13T21:32:36.247Z,2.84
2024-02-13T21:35:04.622Z,2.86
2024-02-13T21:37:31.971Z,2.81
2024-02-13T21:39:58.824Z,2.73
2024-02-13T21:42:25.676Z,2.76
2024-02-13T21:44:52.575Z,2.76
2024-02-13T21:47:19.494Z,2.75
2024-02-13T21:49:46.379Z,2.63
2024-02-13T21:52:13.701Z,2.64
2024-02-13T21:54:40.611Z,2.58
2024-02-13T21:57:10.567Z,2.60
2024-02-13T21:59:37.509Z,2.49
2024-02-13T22:02:04.664Z,2.42
2024-02-13T22:04:34.741Z,2.41
2024-02-13T22:07:02.016Z,2.36
2024-02-13T22:09:29.002Z,2.37
2024-02-13T22:11:56.525Z,2.31
2024-02-13T22:14:23.931Z,2.33
2024-02-13T22:16:52.468Z,2.29
2024-02-13T22:19:19.614Z,2.16
2024-02-13T22:21:47.420Z,2.19
2024-02-13T22:24:14.387Z,2.21
2024-02-13T22:26:41.402Z,2.25
2024-02-13T22:29:09.450Z,2.32
2024-02-13T22:31:36.675Z,2.34
2024-02-13T22:34:04.491Z,2.35
2024-02-13T22:36:31.473Z,2.30
2024-02-13T22:38:58.372Z,2.26
2024-02-13T22:41:25.556Z,2.30
2024-02-13T22:43:55.250Z,2.25
2024-02-13T22:46:25.964Z,2.25
2024-02-13T22:48:53.382Z,2.17
2024-02-13T22:51:20.517Z,2.18
2024-02-13T22:53:47.373Z,2.20
2024-02-13T22:56:14.264Z,2.23
2024-02-13T22:58:41.081Z,2.27
2024-02-13T23:01:09.269Z,2.32
2024-02-13T23:03:36.665Z,2.32
2024-02-13T23:06:05.178Z,2.33
2024-02-13T23:08:32.754Z,2.31
2024-02-13T23:11:00.053Z,2.31
2024-02-13T23:13:32.388Z,2.31
2024-02-13T23:16:08.030Z,2.31
2024-02-13T23:18:36.031Z,2.29
2024-02-13T23:21:04.271Z,2.33
2024-02-13T23:23:34.006Z,2.33
2024-02-13T23:26:01.196Z,2.27
2024-02-13T23:28:32.594Z,2.29
2024-02-13T23:31:02.469Z,2.25
2024-02-13T23:33:30.900Z,2.28
2024-02-13T23:35:58.374Z,2.20
2024-02-13T23:38:25.361Z,2.16
2024-02-13T23:40:52.413Z,2.15
2024-02-13T23:43:19.574Z,2.15
2024-02-13T23:45:46.413Z,2.11
2024-02-13T23:48:14.382Z,2.11
2024-02-13T23:50:41.571Z,2.09
2024-02-13T23:53:09.209Z,2.04
2024-02-13T23:55:36.077Z,2.02
2024-02-13T23:58:04.728Z,1.99
